createdAt,value
2018-01-19T15:26:46.686Z,5.40
2018-01-19T15:29:15.040Z,5.23
2018-01-19T15:31:43.328Z,6.00
2018-01-19T15:34:11.860Z,5.83
2018-01-19T15:36:40.372Z,5.23
2018-01-19T15:39:08.664Z,6.43
2018-01-19T15:41:37.040Z,5.20
2018-01-19T15:44:05.328Z,5.60
2018-01-19T15:46:33.725Z,5.80
2018-01-19T15:49:02.069Z,6.00
2018-01-19T15:51:33.041Z,5.40
2018-01-19T15:54:01.344Z,6.00
2018-01-19T15:56:30.409Z,5.62
2018-01-19T15:58:58.720Z,6.60
2018-01-19T16:01:27.780Z,6.50
2018-01-19T16:03:56.056Z,5.47
2018-01-19T16:06:25.277Z,6.27
2018-01-19T16:08:53.558Z,5.80
2018-01-19T16:11:21.847Z,5.73
2018-01-19T16:13:50.940Z,6.40
2018-01-19T16:16:19.242Z,5.17
2018-01-19T16:18:48.299Z,5.93
2018-01-19T16:21:16.753Z,5.77
2018-01-19T16:23:45.558Z,6.47
2018-01-19T16:26:14.273Z,5.80
2018-01-19T16:28:43.356Z,6.07
2018-01-19T16:31:12.369Z,6.40
2018-01-19T16:33:41.511Z,5.87
2018-01-19T16:36:11.150Z,5.73
2018-01-19T16:38:39.502Z,5.70
2018-01-19T16:41:07.794Z,5.77
2018-01-19T16:43:36.079Z,5.70
2018-01-19T16:46:04.380Z,13.73
2018-01-19T16:48:32.824Z,13.87
2018-01-19T16:51:01.932Z,14.27
2018-01-19T16:53:30.254Z,15.50
2018-01-19T16:55:59.315Z,15.10
2018-01-19T16:58:27.635Z,12.90
2018-01-19T17:00:56.716Z,10.63
2018-01-19T17:03:27.250Z,9.17
2018-01-19T17:05:56.335Z,7.97
2018-01-19T17:08:25.191Z,7.23
2018-01-19T17:10:53.520Z,6.47
2018-01-19T17:13:22.657Z,6.60
2018-01-19T17:15:51.897Z,5.90
2018-01-19T17:18:20.780Z,5.37
2018-01-19T17:20:49.531Z,5.60
2018-01-19T17:23:17.903Z,5.87
2018-01-19T17:25:47.248Z,5.00
2018-01-19T17:28:15.532Z,5.37
2018-01-19T17:30:44.417Z,6.27
2018-01-19T17:33:12.735Z,4.40
2018-01-19T17:35:41.839Z,4.60
2018-01-19T17:38:10.122Z,4.67
2018-01-19T17:40:38.400Z,4.90
2018-01-19T17:43:07.529Z,4.40
2018-01-19T17:45:35.826Z,4.33
2018-01-19T17:48:04.128Z,5.17
2018-01-19T17:50:33.173Z,3.97
2018-01-19T17:53:01.696Z,4.23
2018-01-19T17:55:30.004Z,4.40
2018-01-19T17:57:58.289Z,4.57
2018-01-19T18:00:26.584Z,4.63
2018-01-19T18:02:54.869Z,4.43
2018-01-19T18:05:23.142Z,4.33
2018-01-19T18:07:51.444Z,4.13
2018-01-19T18:10:20.620Z,3.30
2018-01-19T18:12:49.109Z,4.20
2018-01-19T18:15:17.387Z,3.30
2018-01-19T18:17:45.669Z,3.90
2018-01-19T18:20:14.757Z,4.37
2018-01-19T18:22:43.030Z,4.07
2018-01-19T18:25:11.304Z,3.23
2018-01-19T18:27:39.596Z,3.90
2018-01-19T18:30:07.884Z,14.47
2018-01-19T18:32:36.484Z,14.63
2018-01-19T18:35:04.775Z,11.90
2018-01-19T18:37:33.072Z,14.33
2018-01-19T18:40:02.518Z,15.03
2018-01-19T18:42:30.794Z,16.40
2018-01-19T18:44:59.088Z,17.67
2018-01-19T18:47:27.393Z,15.60
2018-01-19T18:49:56.463Z,17.10
2018-01-19T18:52:24.759Z,19.83
2018-01-19T18:54:53.847Z,20.03
2018-01-19T18:57:22.211Z,18.43
2018-01-19T18:59:50.518Z,19.30
2018-01-19T19:02:18.953Z,14.97
2018-01-19T19:04:47.720Z,14.30
2018-01-19T19:07:16.029Z,17.13
2018-01-19T19:09:44.344Z,13.13
2018-01-19T19:12:12.649Z,13.90
2018-01-19T19:14:40.973Z,14.00
2018-01-19T19:17:09.574Z,13.07
2018-01-19T19:19:37.983Z,13.03
2018-01-19T19:22:07.649Z,12.37
2018-01-19T19:24:35.947Z,12.20
2018-01-19T19:27:04.236Z,12.30
2018-01-19T19:29:33.355Z,11.87
2018-01-19T19:32:02.579Z,11.93
2018-01-19T19:34:31.311Z,11.13
2018-01-19T19:36:59.613Z,10.87
2018-01-19T19:39:28.681Z,11.17
2018-01-19T19:41:56.972Z,10.60
2018-01-19T19:44:26.037Z,11.57
2018-01-19T19:46:54.354Z,11.50
2018-01-19T19:49:23.732Z,10.63
2018-01-19T19:51:52.015Z,8.63
2018-01-19T19:54:20.614Z,10.80
2018-01-19T19:56:49.732Z,10.70
2018-01-19T19:59:18.479Z,9.57
2018-01-19T20:01:46.987Z,11.03
2018-01-19T20:04:16.658Z,10.30
2018-01-19T20:06:44.969Z,10.10
2018-01-19T20:09:13.278Z,11.50
2018-01-19T20:11:41.785Z,10.00
2018-01-19T20:14:10.074Z,9.60
2018-01-19T20:16:38.572Z,9.57
2018-01-19T20:19:07.353Z,9.77
2018-01-19T20:21:36.224Z,10.00
2018-01-19T20:24:04.532Z,8.70
2018-01-19T20:26:33.155Z,9.37
2018-01-19T20:29:02.228Z,9.40
2018-01-19T20:31:30.531Z,9.40
2018-01-19T20:33:58.829Z,8.97
2018-01-19T20:36:27.149Z,9.70
2018-01-19T20:38:55.448Z,8.67
2018-01-19T20:41:24.861Z,9.80
2018-01-19T20:43:54.047Z,9.43
2018-01-19T20:46:22.368Z,8.97
2018-01-19T20:48:50.816Z,8.63
2018-01-19T20:51:19.900Z,8.80
2018-01-19T20:53:48.487Z,8.00
2018-01-19T20:56:16.794Z,9.20
2018-01-19T20:58:45.118Z,9.43
2018-01-19T21:01:13.439Z,9.57
2018-01-19T21:03:43.217Z,8.80
2018-01-19T21:06:11.572Z,9.57
2018-01-19T21:08:39.969Z,8.03
2018-01-19T21:11:08.591Z,8.70
2018-01-19T21:13:37.899Z,7.70
2018-01-19T21:16:07.173Z,9.23
2018-01-19T21:18:35.585Z,9.90
2018-01-19T21:21:03.916Z,8.17
2018-01-19T21:23:32.730Z,8.03
2018-01-19T21:26:01.528Z,8.10
2018-01-19T21:28:30.588Z,7.60
2018-01-19T21:30:58.885Z,7.80
2018-01-19T21:33:27.296Z,8.73
2018-01-19T21:35:56.432Z,8.07
2018-01-19T21:38:24.734Z,8.30
2018-01-19T21:40:53.208Z,8.63
2018-01-19T21:43:21.888Z,8.23
2018-01-19T21:45:50.725Z,6.90
2018-01-19T21:48:20.080Z,7.70
2018-01-19T21:50:49.056Z,7.80
2018-01-19T21:53:17.369Z,7.67
2018-01-19T21:55:45.678Z,7.77
2018-01-19T21:58:16.380Z,7.93
2018-01-19T22:00:44.684Z,8.43
2018-01-19T22:03:13.737Z,7.20
2018-01-19T22:05:42.229Z,8.03
2018-01-19T22:08:10.508Z,8.50
2018-01-19T22:10:38.805Z,7.63
2018-01-19T22:13:07.167Z,7.60
2018-01-19T22:15:35.768Z,8.50
2018-01-19T22:18:04.095Z,7.23
2018-01-19T22:20:32.384Z,7.10
2018-01-19T22:23:01.346Z,7.43
2018-01-19T22:25:30.487Z,7.50
2018-01-19T22:27:58.771Z,26.80
2018-01-19T22:30:27.549Z,32.40
2018-01-19T22:32:56.617Z,42.70
2018-01-19T22:35:25.659Z,43.43
2018-01-19T22:37:53.971Z,38.80
2018-01-19T22:40:23.044Z,33.03
2018-01-19T22:42:51.643Z,36.47
2018-01-19T22:45:20.098Z,35.90
2018-01-19T22:47:48.393Z,33.53
2018-01-19T22:50:16.785Z,36.60
2018-01-19T22:52:45.081Z,32.17
2018-01-19T22:55:14.328Z,34.17
2018-01-19T22:57:42.612Z,32.50
2018-01-19T23:00:11.802Z,27.60
2018-01-19T23:02:40.331Z,31.40
2018-01-19T23:05:09.375Z,29.80
2018-01-19T23:07:38.163Z,31.23
2018-01-19T23:10:06.555Z,30.53
2018-01-19T23:12:35.746Z,29.87
2018-01-19T23:15:04.235Z,31.20
2018-01-19T23:17:33.039Z,27.93
2018-01-19T23:20:01.325Z,28.90
2018-01-19T23:22:30.288Z,30.17
2018-01-19T23:24:58.568Z,28.90
2018-01-19T23:27:26.876Z,29.63
2018-01-19T23:29:55.588Z,29.60
2018-01-19T23:32:24.706Z,30.10
2018-01-19T23:34:53.463Z,27.30
2018-01-19T23:37:22.551Z,27.63
2018-01-19T23:39:52.479Z,27.17
2018-01-19T23:42:21.548Z,27.33
2018-01-19T23:44:50.186Z,29.57
2018-01-19T23:47:18.506Z,27.33
2018-01-19T23:49:47.006Z,27.10
2018-01-19T23:52:15.319Z,25.67
2018-01-19T23:54:43.620Z,26.97
2018-01-19T23:57:14.855Z,27.07
2018-01-19T23:59:43.122Z,26.00
